Time;durP1;ratioP1;P1;durP2;ratioP2;P2;SDS_P1;SDS_P2;PMS_P1;PMS_P2;Temp;Humidity;BMP_temperature;BMP_pressure;BME280_temperature;BME280_humidity;BME280_pressure;Samples;Min_cycle;Max_cycle;Signal;HPM_P1;HPM_P2
2021/05/19 00:00:00;;;;;;;6.83;6.33;;;;;;;15.08;76.31;98693.38;1670281;84;21161;-91
2021/05/19 00:02:26;;;;;;;10.28;7.47;;;;;;;15.06;76.76;98692.02;1735095;82;21058;-90
2021/05/19 00:04:53;;;;;;;11.22;9.73;;;;;;;15.02;76.66;98691.73;1766178;80;21041;-90
2021/05/19 00:07:20;;;;;;;12.65;10.58;;;;;;;15.02;76.90;98696.30;1768186;80;21757;-90
2021/05/19 00:09:48;;;;;;;13.88;12.15;;;;;;;14.96;77.02;98698.93;1763715;80;21737;-90
2021/05/19 00:12:14;;;;;;;14.30;12.90;;;;;;;14.90;77.32;98702.65;1764217;80;21079;-92
2021/05/19 00:14:40;;;;;;;13.83;11.80;;;;;;;14.91;77.39;98694.06;1761360;80;21626;-91
2021/05/19 00:17:07;;;;;;;16.70;13.08;;;;;;;14.97;77.31;98691.17;1757841;80;21167;-90
2021/05/19 00:19:33;;;;;;;14.58;13.28;;;;;;;14.98;77.31;98686.61;1763404;80;21632;-91
2021/05/19 00:21:59;;;;;;;14.63;13.38;;;;;;;14.98;77.40;98691.43;1764748;80;21087;-90
2021/05/19 00:24:25;;;;;;;15.23;14.03;;;;;;;14.98;77.66;98690.09;1754125;81;21047;-91
2021/05/19 00:26:53;;;;;;;15.95;14.68;;;;;;;14.96;77.84;98693.56;1760551;80;21495;-91
2021/05/19 00:29:21;;;;;;;15.68;14.40;;;;;;;14.94;77.91;98688.99;1743586;80;21095;-91
2021/05/19 00:31:47;;;;;;;16.77;15.18;;;;;;;14.96;77.87;98690.08;1764763;79;21082;-91
2021/05/19 00:34:14;;;;;;;14.68;13.35;;;;;;;15.04;77.72;98690.13;1773374;80;21017;-91
2021/05/19 00:36:41;;;;;;;17.17;15.45;;;;;;;15.10;77.62;98694.46;1763949;80;21045;-91
2021/05/19 00:39:11;;;;;;;17.60;16.17;;;;;;;15.11;77.63;98690.19;1765851;80;21033;-92
2021/05/19 00:41:42;;;;;;;17.75;15.83;;;;;;;15.10;77.70;98690.44;1762403;80;21138;-91
2021/05/19 00:44:18;;;;;;;18.80;17.20;;;;;;;15.10;77.74;98683.19;1761582;80;21888;-93
2021/05/19 00:46:46;;;;;;;15.80;14.60;;;;;;;15.14;77.54;98684.83;1757876;80;21157;-92
2021/05/19 00:49:13;;;;;;;16.82;15.23;;;;;;;15.20;77.23;98677.10;1773489;80;21028;-91
2021/05/19 00:51:39;;;;;;;17.57;15.95;;;;;;;15.21;77.07;98677.36;1708982;83;21156;-92
2021/05/19 00:54:08;;;;;;;17.25;15.78;;;;;;;15.16;77.04;98672.78;1780405;80;21140;-92
2021/05/19 00:56:34;;;;;;;17.95;16.45;;;;;;;15.09;77.25;98670.86;1780965;78;21110;-92
2021/05/19 00:59:03;;;;;;;19.07;17.42;;;;;;;15.02;77.57;98670.27;1751609;80;21047;-91
2021/05/19 01:01:36;;;;;;;17.05;15.30;;;;;;;15.03;77.60;98676.43;1780151;78;21568;-91
2021/05/19 01:04:08;;;;;;;16.65;15.45;;;;;;;15.09;77.42;98678.91;1786730;78;21089;-91
2021/05/19 01:11:55;;;;;;;16.40;14.95;;;;;;;15.02;77.52;98679.66;1767745;78;21149;-93
2021/05/19 01:14:22;;;;;;;15.68;14.40;;;;;;;14.95;77.65;98679.86;1794290;78;21110;-92
2021/05/19 01:16:48;;;;;;;13.62;12.63;;;;;;;14.94;77.59;98682.28;1772362;78;21095;-93
2021/05/19 01:19:19;;;;;;;13.70;12.35;;;;;;;14.97;77.48;98686.31;1787817;78;21672;-92
2021/05/19 01:21:50;;;;;;;14.03;12.93;;;;;;;14.97;77.51;98691.68;1791766;78;21146;-91
2021/05/19 01:24:17;;;;;;;15.20;14.10;;;;;;;14.89;77.88;98695.66;1773469;78;21027;-92
2021/05/19 01:26:44;;;;;;;15.83;14.43;;;;;;;14.76;78.18;98690.72;1790811;78;21126;-92
2021/05/19 01:29:10;;;;;;;16.20;14.73;;;;;;;14.73;78.42;98685.86;1778723;78;21201;-91
2021/05/19 01:31:36;;;;;;;15.95;14.65;;;;;;;14.78;78.43;98685.91;1788064;78;21720;-93
2021/05/19 01:34:03;;;;;;;15.55;14.35;;;;;;;14.83;78.45;98683.27;1785383;78;21039;-91
2021/05/19 01:36:30;;;;;;;16.45;14.85;;;;;;;14.84;78.42;98691.58;1781734;78;21103;-92
2021/05/19 01:38:57;;;;;;;17.02;15.70;;;;;;;14.81;78.62;98689.43;1777859;78;21090;-92
2021/05/19 01:41:25;;;;;;;15.08;13.65;;;;;;;14.80;78.74;98686.45;1779104;78;21818;-87
2021/05/19 01:43:52;;;;;;;14.93;13.78;;;;;;;14.83;78.70;98686.50;1791323;78;21783;-92
2021/05/19 01:46:29;;;;;;;15.63;14.45;;;;;;;14.87;78.48;98684.38;1788472;78;21376;-91
2021/05/19 01:48:58;;;;;;;15.95;14.70;;;;;;;14.90;78.50;98685.72;1782930;78;21686;-91
2021/05/19 01:51:24;;;;;;;14.83;13.70;;;;;;;14.91;78.51;98682.79;1773094;78;21079;-91
2021/05/19 01:53:51;;;;;;;15.40;14.20;;;;;;;14.88;78.64;98686.52;1807320;78;21644;-91
2021/05/19 01:56:17;;;;;;;;;;;;;;;14.86;78.74;98688.14;1780034;78;20984;-92
2021/05/19 01:58:45;;;;;;;15.98;14.60;;;;;;;14.88;78.66;98687.34;1773110;78;20165;-91
2021/05/19 02:01:12;;;;;;;16.00;14.70;;;;;;;14.90;78.51;98693.26;1794109;78;20980;-91
2021/05/19 02:03:40;;;;;;;17.12;15.75;;;;;;;14.94;78.54;98698.92;1752870;78;21063;-91
2021/05/19 02:06:08;;;;;;;17.12;15.55;;;;;;;14.97;78.57;98705.93;1793227;78;21202;-91
2021/05/19 02:08:35;;;;;;;;;;;;;;;14.96;78.61;98704.30;1802603;78;21216;-91
2021/05/19 02:11:02;;;;;;;17.57;16.17;;;;;;;14.95;78.60;98701.33;1787878;78;20267;-91
2021/05/19 02:13:30;;;;;;;17.37;15.75;;;;;;;14.88;78.72;98707.47;1774501;78;21056;-91
2021/05/19 02:15:59;;;;;;;16.60;15.23;;;;;;;14.92;78.72;98697.83;1795038;78;21531;-92
2021/05/19 02:18:25;;;;;;;;;;;;;;;15.01;78.45;98700.83;1807076;78;21648;-91
2021/05/19 02:20:51;;;;;;;16.97;15.33;;;;;;;15.08;78.34;98707.33;1792604;78;20190;-92
2021/05/19 02:23:19;;;;;;;16.45;14.95;;;;;;;15.09;78.37;98702.25;1768941;78;21288;-92
2021/05/19 02:25:45;;;;;;;17.17;15.65;;;;;;;15.09;78.33;98706.28;1764319;78;21135;-91
2021/05/19 02:28:11;;;;;;;16.55;15.20;;;;;;;15.08;78.26;98703.30;1765987;78;21736;-93
2021/05/19 02:30:39;;;;;;;16.00;14.45;;;;;;;15.11;78.16;98702.80;1788871;78;21109;-92
2021/05/19 02:33:12;;;;;;;15.13;13.88;;;;;;;15.21;78.05;98711.45;1783640;80;21091;-92
2021/05/19 02:35:38;;;;;;;16.40;15.10;;;;;;;15.27;77.78;98705.84;1789794;78;21050;-92
2021/05/19 02:38:05;;;;;;;;;;;;;;;15.30;77.69;98712.05;1790309;78;21039;-92
2021/05/19 02:40:32;;;;;;;16.07;14.63;;;;;;;15.26;77.54;98706.13;1751343;80;20246;-92
2021/05/19 02:42:59;;;;;;;16.73;15.23;;;;;;;15.14;77.93;98715.69;1796966;78;21135;-91
2021/05/19 02:45:27;;;;;;;15.63;14.13;;;;;;;15.18;77.94;98714.92;1762260;80;21217;-91
2021/05/19 02:47:53;;;;;;;15.15;13.90;;;;;;;15.26;77.67;98712.29;1764568;80;21079;-92
2021/05/19 02:50:19;;;;;;;15.55;14.25;;;;;;;15.29;77.39;98707.73;1756500;80;21100;-92
2021/05/19 02:52:45;;;;;;;16.65;15.35;;;;;;;15.32;77.56;98713.13;1767126;80;21703;-92
2021/05/19 02:55:12;;;;;;;15.38;14.00;;;;;;;15.26;77.42;98716.31;1742367;80;21133;-91
2021/05/19 02:57:39;;;;;;;16.20;14.75;;;;;;;15.23;77.64;98717.37;1750615;81;21050;-92
2021/05/19 03:00:10;;;;;;;15.20;14.00;;;;;;;15.24;77.58;98717.11;1751531;81;21130;-92
2021/05/19 03:02:36;;;;;;;15.60;14.07;;;;;;;15.33;77.34;98725.47;1732565;81;21118;-92
2021/05/19 03:05:04;;;;;;;13.98;12.88;;;;;;;15.35;77.11;98725.51;1737164;81;21038;-92
2021/05/19 03:07:30;;;;;;;14.07;12.98;;;;;;;15.36;77.11;98734.36;1738117;81;21067;-92
2021/05/19 03:09:58;;;;;;;16.12;14.68;;;;;;;15.28;76.93;98734.31;1747869;81;21684;-91
2021/05/19 03:12:25;;;;;;;13.68;12.68;;;;;;;15.15;77.00;98730.73;1757717;80;21702;-92
2021/05/19 03:14:52;;;;;;;14.45;13.30;;;;;;;15.12;77.13;98732.03;1766330;80;21118;-91
2021/05/19 03:17:18;;;;;;;12.58;11.68;;;;;;;15.14;77.03;98723.73;1766896;80;21110;-92
2021/05/19 03:19:44;;;;;;;13.48;12.25;;;;;;;15.14;77.10;98726.42;1766155;80;21052;-92
2021/05/19 03:22:11;;;;;;;15.35;14.05;;;;;;;15.10;77.16;98730.69;1766095;80;21122;-92
2021/05/19 03:24:37;;;;;;;15.75;14.28;;;;;;;14.98;77.50;98733.02;1747685;80;21368;-91
2021/05/19 03:27:05;;;;;;;14.20;12.80;;;;;;;14.94;77.74;98733.80;1741790;80;21111;-90
2021/05/19 03:29:31;;;;;;;14.68;13.45;;;;;;;14.97;77.75;98738.13;1754433;80;21099;-91
2021/05/19 03:31:57;;;;;;;12.55;11.50;;;;;;;15.01;77.76;98738.39;1754648;80;21057;-92
2021/05/19 03:34:24;;;;;;;14.78;13.22;;;;;;;15.02;77.83;98736.54;1745178;80;21132;-91
2021/05/19 03:36:50;;;;;;;;;;;;;;;14.99;77.92;98733.81;1747897;81;21113;-92
2021/05/19 03:39:16;;;;;;;14.68;13.38;;;;;;;14.96;78.11;98745.88;1694715;83;20557;-92
2021/05/19 03:41:44;;;;;;;17.55;15.10;;;;;;;14.96;78.11;98743.20;1717968;83;21052;-92
2021/05/19 03:44:11;;;;;;;17.75;15.90;;;;;;;15.03;77.97;98744.34;1768018;80;21083;-91
2021/05/19 03:46:37;;;;;;;26.25;19.73;;;;;;;15.11;77.82;98743.05;1765986;79;21108;-90
2021/05/19 03:49:05;;;;;;;39.60;25.62;;;;;;;15.10;77.65;98749.47;1770266;80;21171;-90
2021/05/19 03:51:33;;;;;;;42.27;26.62;;;;;;;14.97;77.97;98750.70;1773981;81;21030;-91
2021/05/19 03:54:00;;;;;;;36.42;23.80;;;;;;;14.93;78.23;98747.72;1753686;81;21077;-90
2021/05/19 03:56:27;;;;;;;39.38;23.38;;;;;;;14.99;78.23;98748.58;1767166;80;21012;-92
2021/05/19 03:58:53;;;;;;;28.52;22.27;;;;;;;15.02;78.27;98753.98;1753122;80;21449;-91
2021/05/19 04:01:22;;;;;;;34.33;23.73;;;;;;;14.97;78.25;98750.70;1745676;81;21756;-91
2021/05/19 04:03:51;;;;;;;29.95;22.37;;;;;;;14.92;78.65;98754.17;1737033;81;21163;-91
2021/05/19 04:06:23;;;;;;;29.65;23.40;;;;;;;14.96;78.69;98741.86;1750477;81;21165;-89
2021/05/19 04:08:52;;;;;;;28.00;22.48;;;;;;;15.06;78.41;98741.66;1737208;81;21143;-91
2021/05/19 04:11:19;;;;;;;29.80;21.75;;;;;;;15.12;78.39;98736.61;1759160;81;21018;-91
2021/05/19 04:13:46;;;;;;;25.90;22.67;;;;;;;15.15;78.28;98730.73;1750965;81;21153;-91
2021/05/19 04:16:15;;;;;;;27.90;24.70;;;;;;;15.09;78.27;98730.43;1751279;80;21025;-91
2021/05/19 04:18:42;;;;;;;30.40;24.05;;;;;;;15.01;78.50;98728.20;1745046;81;21686;-92
2021/05/19 04:21:08;;;;;;;37.05;24.90;;;;;;;15.03;78.66;98742.16;1744867;81;21116;-90
2021/05/19 04:23:35;;;;;;;;;;;;;;;15.03;78.78;98742.16;1759043;81;21228;-91
2021/05/19 04:26:02;;;;;;;38.90;26.07;;;;;;;15.08;79.01;98737.65;1751386;81;20586;-92
2021/05/19 04:28:28;;;;;;;35.65;25.77;;;;;;;15.05;79.08;98745.40;1761953;81;21702;-91
2021/05/19 04:30:54;;;;;;;43.08;27.27;;;;;;;15.07;79.04;98742.75;1740376;81;20979;-92
2021/05/19 04:33:22;;;;;;;39.58;27.27;;;;;;;15.14;78.61;98742.01;1749778;81;21058;-90
2021/05/19 04:35:50;;;;;;;43.90;25.72;;;;;;;15.22;78.51;98739.89;1756662;81;21066;-92
2021/05/19 04:38:17;;;;;;;31.17;24.50;;;;;;;15.28;78.53;98742.37;1759492;81;21050;-91
2021/05/19 04:40:44;;;;;;;;;;;;;;;15.36;78.45;98737.05;1762683;81;21077;-92
2021/05/19 04:43:11;;;;;;;25.17;21.82;;;;;;;15.40;78.26;98737.34;1736408;81;20607;-92
2021/05/19 04:45:38;;;;;;;23.85;21.52;;;;;;;15.30;78.39;98733.52;1741265;81;21762;-91
2021/05/19 04:48:06;;;;;;;24.80;21.80;;;;;;;15.35;78.68;98732.22;1729850;81;21046;-91
2021/05/19 04:50:33;;;;;;;25.25;22.80;;;;;;;15.52;79.26;98736.08;1729299;81;21188;-92
2021/05/19 04:52:59;;;;;;;23.90;21.73;;;;;;;15.75;78.81;98729.51;1731883;81;21826;-91
2021/05/19 04:55:26;;;;;;;22.20;20.40;;;;;;;15.96;77.70;98730.94;1735292;81;20996;-91
2021/05/19 04:57:52;;;;;;;23.62;21.33;;;;;;;16.11;76.30;98739.05;1744124;81;21145;-90
2021/05/19 05:00:19;;;;;;;24.92;22.80;;;;;;;16.22;76.01;98740.42;1741136;81;21054;-90
2021/05/19 05:02:45;;;;;;;25.30;22.30;;;;;;;16.42;75.84;98735.64;1731408;81;21054;-90
2021/05/19 05:05:12;;;;;;;;;;;;;;;16.79;75.82;98732.73;1743043;81;21727;-91
2021/05/19 05:07:38;;;;;;;25.00;22.80;;;;;;;17.17;73.53;98730.60;1748957;81;20226;-91
2021/05/19 05:10:07;;;;;;;25.48;23.05;;;;;;;17.22;72.31;98731.95;1750526;81;21106;-91
2021/05/19 05:12:36;;;;;;;28.80;26.17;;;;;;;17.14;72.30;98727.13;1738759;81;21010;-92
2021/05/19 05:15:05;;;;;;;25.82;23.55;;;;;;;17.05;72.76;98738.97;1737118;81;21038;-92
2021/05/19 05:17:33;;;;;;;23.87;21.82;;;;;;;17.04;73.00;98733.84;1746360;81;21113;-90
2021/05/19 05:20:00;;;;;;;25.60;23.20;;;;;;;17.04;73.00;98727.11;1736555;81;21057;-91
2021/05/19 05:22:27;;;;;;;26.52;24.07;;;;;;;17.11;72.21;98739.22;1750887;81;21646;-93
2021/05/19 05:24:53;;;;;;;28.80;26.05;;;;;;;17.11;71.07;98735.73;1719808;81;21046;-92
2021/05/19 05:27:19;;;;;;;30.05;27.30;;;;;;;17.11;71.07;98735.73;1733378;82;21136;-91
2021/05/19 05:29:46;;;;;;;30.75;27.60;;;;;;;16.99;71.35;98736.02;1727276;82;21176;-92
2021/05/19 05:32:17;;;;;;;27.93;25.32;;;;;;;16.97;71.70;98734.65;1725369;81;21105;-93
2021/05/19 05:34:43;;;;;;;29.92;27.20;;;;;;;17.11;71.85;98731.14;1707692;82;21029;-92
2021/05/19 05:38:21;;;;;;;28.70;25.97;;;;;;;17.38;71.09;98732.72;1795760;79;22852;-91
2021/05/19 05:40:47;;;;;;;29.80;27.13;;;;;;;17.39;70.34;98732.20;1795479;78;21097;-91
2021/05/19 05:43:13;;;;;;;31.17;28.10;;;;;;;17.38;70.24;98725.19;1799438;78;21111;-90
2021/05/19 05:45:40;;;;;;;29.90;26.87;;;;;;;17.32;70.17;98730.58;1778815;77;21802;-91
2021/05/19 05:48:06;;;;;;;31.52;28.57;;;;;;;17.32;70.30;98733.82;1760815;79;21102;-91
2021/05/19 05:50:32;;;;;;;;;;;;;;;17.23;70.70;98736.24;1759745;81;21157;-92
2021/05/19 05:52:58;;;;;;;30.30;27.40;;;;;;;17.02;71.08;98742.19;1763507;79;20257;-91
2021/05/19 05:55:24;;;;;;;;;;;;;;;16.78;71.95;98746.45;1768005;79;21014;-89
2021/05/19 05:57:51;;;;;;;28.07;25.05;;;;;;;16.74;71.80;98750.21;1773315;81;20190;-89
2021/05/19 06:00:19;;;;;;;28.65;26.15;;;;;;;16.78;71.80;98749.94;1774645;79;21162;-90
2021/05/19 06:02:47;;;;;;;25.60;23.25;;;;;;;16.88;72.14;98745.96;1774128;79;21055;-91
2021/05/19 06:05:14;;;;;;;29.77;27.27;;;;;;;16.96;71.49;98743.27;1773653;79;21589;-89
2021/05/19 06:07:40;;;;;;;26.85;24.57;;;;;;;16.92;71.30;98744.89;1750936;79;21255;-90
2021/05/19 06:10:08;;;;;;;25.40;23.15;;;;;;;16.91;71.07;98742.75;1774676;79;21066;-92
2021/05/19 06:12:36;;;;;;;22.00;20.20;;;;;;;17.00;71.22;98744.89;1766346;80;21784;-89
2021/05/19 06:15:05;;;;;;;22.50;20.52;;;;;;;16.76;69.41;98703.67;1745566;79;21083;-91
2021/05/19 06:17:33;;;;;;;22.82;20.85;;;;;;;16.98;69.42;98749.19;1749031;79;21178;-91
2021/05/19 06:20:01;;;;;;;20.75;18.85;;;;;;;16.98;69.27;98755.12;1751776;79;21202;-92
2021/05/19 06:22:28;;;;;;;21.23;19.27;;;;;;;17.08;69.76;98757.80;1744590;81;21593;-91
2021/05/19 06:24:55;;;;;;;23.18;20.70;;;;;;;17.08;69.76;98757.80;1753673;81;21767;-91
2021/05/19 06:27:21;;;;;;;20.30;18.42;;;;;;;17.22;69.23;98760.22;1745164;79;21749;-90
2021/05/19 06:29:48;;;;;;;19.65;17.90;;;;;;;17.27;68.79;98762.09;1756410;81;21157;-92
2021/05/19 06:32:14;;;;;;;20.68;19.02;;;;;;;17.21;68.61;98766.67;1765414;79;21104;-90
2021/05/19 06:34:40;;;;;;;;;;;;;;;17.12;68.57;98766.42;1773754;79;21008;-90
2021/05/19 06:37:06;;;;;;;16.87;15.65;;;;;;;17.07;68.42;98769.66;1770230;79;20340;-91
2021/05/19 06:39:33;;;;;;;19.12;17.30;;;;;;;17.08;68.86;98783.37;1763821;81;21169;-90
2021/05/19 06:41:59;;;;;;;18.37;16.97;;;;;;;17.15;69.12;98787.95;1766633;80;21067;-90
2021/05/19 06:44:25;;;;;;;;;;;;;;;17.16;69.28;98784.20;1746194;79;21076;-92
2021/05/19 06:46:52;;;;;;;21.62;19.85;;;;;;;17.21;69.92;98794.14;1716302;81;20241;-90
2021/05/19 06:49:19;;;;;;;24.27;21.97;;;;;;;17.20;70.14;98793.34;1707634;82;21452;-91
2021/05/19 06:51:46;;;;;;;23.77;21.80;;;;;;;17.46;69.55;98793.31;1722343;83;21111;-91
2021/05/19 06:54:13;;;;;;;23.98;21.87;;;;;;;17.46;69.55;98793.31;1723518;83;21117;-91
2021/05/19 06:56:44;;;;;;;17.32;16.00;;;;;;;17.50;68.88;98791.71;1718949;80;21028;-90
2021/05/19 06:59:13;;;;;;;17.40;15.70;;;;;;;17.50;68.67;98798.45;1741701;81;21139;-87
2021/05/19 07:01:40;;;;;;;10.93;10.03;;;;;;;17.60;68.44;98802.46;1747706;81;21023;-89
2021/05/19 07:04:07;;;;;;;9.63;8.95;;;;;;;17.75;65.24;98800.83;1757154;81;21032;-90
2021/05/19 07:06:34;;;;;;;11.38;10.48;;;;;;;17.94;64.57;98795.14;1754610;81;21672;-91
2021/05/19 07:09:01;;;;;;;11.43;10.63;;;;;;;18.11;63.09;98794.81;1739267;80;21259;-91
2021/05/19 07:11:27;;;;;;;13.03;11.95;;;;;;;18.11;63.66;98798.05;1741940;81;21019;-90
2021/05/19 07:13:56;;;;;;;;;;;;;;;18.06;63.19;98804.25;1744186;81;21063;-90
2021/05/19 07:16:24;;;;;;;14.28;13.13;;;;;;;17.89;63.76;98810.80;1756919;81;20188;-89
2021/05/19 07:18:55;;;;;;;11.63;10.63;;;;;;;17.68;64.67;98801.89;1755872;80;21070;-90
2021/05/19 07:21:26;;;;;;;10.40;9.70;;;;;;;17.67;65.66;98800.84;1740083;81;21113;-91
2021/05/19 07:23:52;;;;;;;11.53;10.72;;;;;;;17.88;64.31;98793.55;1714703;83;21030;-90
2021/05/19 07:26:20;;;;;;;;;;;;;;;18.10;62.93;98797.22;1714419;82;21109;-90
2021/05/19 07:28:51;;;;;;;9.48;8.80;;;;;;;18.21;62.32;98796.66;1680810;84;20262;-90
2021/05/19 07:31:18;;;;;;;8.40;7.67;;;;;;;18.22;61.26;98793.69;1710106;82;21114;-89
2021/05/19 07:33:44;;;;;;;7.42;6.92;;;;;;;18.29;61.36;98796.89;1723758;81;21099;-90
2021/05/19 07:36:11;;;;;;;8.03;7.40;;;;;;;18.19;60.15;98793.42;1733139;80;21083;-89
2021/05/19 07:38:37;;;;;;;7.50;6.85;;;;;;;18.08;61.45;98800.73;1740551;80;21729;-90
2021/05/19 07:41:03;;;;;;;6.90;6.40;;;;;;;18.00;61.71;98802.12;1739269;81;21097;-91
2021/05/19 07:43:29;;;;;;;5.97;5.37;;;;;;;17.97;61.14;98800.51;1737489;81;21057;-90
2021/05/19 07:45:57;;;;;;;5.50;5.20;;;;;;;18.01;59.50;98799.70;1718990;80;21345;-91
2021/05/19 07:48:23;;;;;;;;;;;;;;;18.12;59.53;98806.39;1713609;82;21118;-91
2021/05/19 07:50:49;;;;;;;5.15;4.85;;;;;;;18.21;58.86;98807.44;1713904;82;20222;-90
2021/05/19 07:53:15;;;;;;;4.85;4.45;;;;;;;18.26;59.41;98811.47;1711552;82;21048;-90
2021/05/19 07:56:05;;;;;;;4.85;3.27;;;;;;;18.34;59.44;98809.53;1717476;82;21023;-88
2021/05/19 07:58:37;;;;;;;3.52;3.22;;;;;;;18.39;58.55;98814.13;1726876;81;21206;-89
2021/05/19 08:01:24;;;;;;;3.90;3.50;;;;;;;18.24;58.20;98820.38;1732212;81;21025;-90
2021/05/19 08:03:37;;;;;;;3.80;3.45;;;;;;;18.12;57.83;98815.31;1745851;81;21077;-89
2021/05/19 08:06:04;;;;;;;4.67;4.30;;;;;;;18.08;57.75;98827.19;1736012;81;21094;-87
2021/05/19 08:08:31;;;;;;;5.00;4.72;;;;;;;18.06;58.31;98825.30;1737374;81;21163;-88
2021/05/19 08:10:58;;;;;;;4.78;4.47;;;;;;;18.08;58.97;98826.35;1721152;81;21037;-91
2021/05/19 08:13:25;;;;;;;6.00;3.25;;;;;;;18.18;58.75;98821.49;1711788;82;20992;-89
2021/05/19 08:15:51;;;;;;;3.85;3.22;;;;;;;18.23;57.87;98822.80;1732271;81;21064;-90
2021/05/19 08:18:19;;;;;;;2.95;2.75;;;;;;;18.31;57.45;98823.59;1730114;81;21631;-88
2021/05/19 08:20:45;;;;;;;1.30;1.20;;;;;;;18.37;57.32;98833.83;1713423;81;21410;-89
2021/05/19 08:23:12;;;;;;;0.80;0.80;;;;;;;18.39;57.56;98828.41;1744414;80;21108;-89
2021/05/19 08:25:38;;;;;;;0.78;0.70;;;;;;;18.47;57.61;98838.61;1732179;81;21139;-89
2021/05/19 08:28:04;;;;;;;;;;;;;;;18.51;57.01;98829.97;1719408;81;21151;-91
2021/05/19 08:30:31;;;;;;;1.32;0.30;;;;;;;18.55;57.33;98840.47;1720984;81;20633;-89
2021/05/19 08:32:57;;;;;;;0.50;0.28;;;;;;;18.61;55.82;98829.39;1718371;81;21142;-90
2021/05/19 08:35:23;;;;;;;0.47;0.30;;;;;;;18.69;54.23;98830.69;1698465;80;21087;-89
2021/05/19 08:37:50;;;;;;;3.47;0.10;;;;;;;18.72;53.72;98834.16;1710007;82;21097;-89
2021/05/19 08:40:17;;;;;;;0.28;0.10;;;;;;;18.76;55.33;98833.89;1717793;81;21133;-90
2021/05/19 08:42:43;;;;;;;0.25;0.10;;;;;;;18.84;56.35;98810.38;1728911;81;21118;-90
2021/05/19 08:45:11;;;;;;;0.40;0.30;;;;;;;19.18;54.99;98831.20;1730729;81;21260;-90
2021/05/19 08:47:37;;;;;;;0.40;0.17;;;;;;;19.36;53.90;98835.10;1730894;81;21097;-89
2021/05/19 08:50:07;;;;;;;0.20;0.10;;;;;;;19.42;51.82;98830.46;1729779;80;21057;-90
2021/05/19 08:52:43;;;;;;;1.30;0.10;;;;;;;19.34;50.51;98836.48;1730811;80;21113;-89
2021/05/19 08:55:18;;;;;;;0.10;0.10;;;;;;;19.24;51.98;98832.77;1716698;82;21192;-90
2021/05/19 08:57:44;;;;;;;0.28;0.17;;;;;;;19.15;51.40;98839.06;1735938;81;21226;-87
2021/05/19 09:00:11;;;;;;;0.17;0.10;;;;;;;19.11;51.71;98840.16;1729742;81;21051;-90
2021/05/19 09:02:38;;;;;;;0.10;0.10;;;;;;;19.13;52.66;98839.34;1740305;81;21133;-90
2021/05/19 09:05:07;;;;;;;;;;;;;;;19.20;51.37;98851.19;1733122;81;21576;-90
2021/05/19 09:07:36;;;;;;;0.62;0.20;;;;;;;19.20;51.62;98849.84;1701105;83;20592;-90
2021/05/19 09:10:19;;;;;;;0.53;0.20;;;;;;;19.06;53.17;98854.52;1725569;81;21116;-88
2021/05/19 09:12:45;;;;;;;0.40;0.20;;;;;;;19.06;54.39;98852.34;1723433;81;21052;-90
2021/05/19 09:15:13;;;;;;;;;;;;;;;19.08;52.02;98842.62;1730426;83;21035;-90
2021/05/19 09:17:40;;;;;;;0.30;0.10;;;;;;;19.08;53.51;98846.15;1728191;82;20302;-91
2021/05/19 09:20:13;;;;;;;0.50;0.20;;;;;;;19.04;53.57;98851.82;1727330;83;21029;-90
2021/05/19 09:22:45;;;;;;;1.17;0.35;;;;;;;19.11;53.84;98843.42;1723453;81;21573;-87
2021/05/19 09:25:22;;;;;;;1.95;0.20;;;;;;;19.23;53.90;98840.63;1727407;81;21071;-89
2021/05/19 09:27:51;;;;;;;1.02;0.10;;;;;;;19.37;53.50;98831.88;1730520;82;21138;-89
2021/05/19 09:30:42;;;;;;;0.62;0.30;;;;;;;19.46;52.60;98835.59;1737583;82;21090;-92
2021/05/19 09:33:24;;;;;;;0.40;0.20;;;;;;;19.45;52.56;98833.95;1725746;82;21583;-89
2021/05/19 09:36:17;;;;;;;0.13;0.10;;;;;;;19.54;52.98;98832.81;1739607;81;21080;-91
2021/05/19 09:38:49;;;;;;;0.50;0.10;;;;;;;19.68;51.95;98823.48;1715535;81;21198;-90
2021/05/19 09:41:31;;;;;;;0.17;0.10;;;;;;;19.83;51.28;98829.59;1734092;81;21140;-90
2021/05/19 09:44:00;;;;;;;0.82;0.10;;;;;;;19.91;51.03;98829.51;1717006;81;21080;-91
2021/05/19 09:49:18;;;;;;;0.57;0.10;;;;;;;19.93;51.29;98835.95;1728460;81;21159;-88
2021/05/19 09:51:54;;;;;;;0.20;0.10;;;;;;;19.86;51.00;98832.25;1716615;82;21827;-91
2021/05/19 09:54:42;;;;;;;0.35;0.10;;;;;;;19.72;51.65;98842.09;1691647;83;21127;-89
2021/05/19 09:57:14;;;;;;;0.82;0.10;;;;;;;19.65;51.17;98835.13;1664873;84;21174;-88
2021/05/19 09:59:45;;;;;;;0.10;0.10;;;;;;;19.62;51.85;98831.63;1665602;85;21082;-88
2021/05/19 10:02:12;;;;;;;0.40;0.10;;;;;;;19.52;52.12;98839.84;1689863;83;21194;-90
2021/05/19 10:04:51;;;;;;;0.30;0.13;;;;;;;19.48;53.10;98833.41;1694588;84;21084;-89
2021/05/19 10:07:13;;;;;;;0.30;0.10;;;;;;;19.53;51.32;98837.39;1688189;84;21204;-90
2021/05/19 10:09:38;;;;;;;2.25;0.20;;;;;;;19.56;51.25;98840.89;1671745;85;21104;-88
2021/05/19 10:12:06;;;;;;;0.85;0.20;;;;;;;19.56;51.25;98836.83;1658557;85;21071;-92
2021/05/19 10:14:33;;;;;;;1.42;0.28;;;;;;;19.60;51.13;98841.92;1649053;86;21111;-90
2021/05/19 10:17:10;;;;;;;0.50;0.10;;;;;;;19.57;50.77;98845.21;1649018;86;21155;-91
2021/05/19 10:19:41;;;;;;;0.35;0.25;;;;;;;19.58;51.10;98842.76;1666017;83;21950;-90
2021/05/19 10:22:12;;;;;;;0.62;0.40;;;;;;;19.68;51.46;98841.84;1661588;82;21632;-89
2021/05/19 10:25:18;;;;;;;0.10;0.08;;;;;;;19.83;51.39;98844.98;1697449;82;22311;-91
2021/05/19 10:27:55;;;;;;;0.40;0.10;;;;;;;19.95;49.85;98845.41;1706308;82;21055;-88
2021/05/19 10:30:42;;;;;;;0.70;0.20;;;;;;;19.96;49.49;98846.21;1726155;82;21831;-89
2021/05/19 10:33:30;;;;;;;;;;;;;;;20.06;49.99;98856.94;1708330;82;21060;-90
2021/05/19 10:36:21;;;;;;;0.37;0.10;;;;;;;20.18;46.17;98849.77;1640015;87;20207;-89
2021/05/19 10:38:47;;;;;;;0.78;0.20;;;;;;;20.07;47.50;98846.92;1671817;84;21117;-90
2021/05/19 10:41:14;;;;;;;;;;;;;;;20.02;48.65;98851.81;1676677;84;21713;-89
2021/05/19 10:43:54;;;;;;;2.70;0.28;;;;;;;20.06;48.41;98854.23;1674662;84;20220;-89
2021/05/19 10:50:00;;;;;;;0.20;0.13;;;;;;;20.11;49.74;98854.71;1650113;86;21149;-88
2021/05/19 10:52:43;;;;;;;1.65;0.40;;;;;;;20.08;50.94;98853.39;1646644;86;21287;-89
2021/05/19 10:58:01;;;;;;;0.40;0.20;;;;;;;20.14;51.14;98854.95;1627056;87;21244;-89
2021/05/19 11:00:32;;;;;;;1.67;0.20;;;;;;;20.14;50.83;98854.95;1634546;86;21157;-89
2021/05/19 11:03:05;;;;;;;1.17;0.20;;;;;;;20.16;50.72;98854.11;1639292;86;21158;-91
2021/05/19 11:05:36;;;;;;;0.75;0.23;;;;;;;20.24;50.40;98858.08;1632412;86;21791;-91
2021/05/19 11:08:13;;;;;;;0.17;0.10;;;;;;;20.35;50.71;98855.51;1632093;86;21121;-90
2021/05/19 11:10:49;;;;;;;0.20;0.10;;;;;;;20.46;50.65;98851.34;1635132;83;21093;-90
2021/05/19 11:13:18;;;;;;;0.20;0.10;;;;;;;20.52;49.52;98848.27;1608469;86;21109;-89
2021/05/19 11:16:03;;;;;;;0.10;0.10;;;;;;;20.55;49.16;98853.63;1618871;88;21183;-89
2021/05/19 11:21:17;;;;;;;4.15;0.20;;;;;;;20.64;48.83;98846.52;1602910;88;21156;-91
2021/05/19 11:24:09;;;;;;;0.47;0.17;;;;;;;20.73;48.79;98848.83;1612104;87;21867;-89
2021/05/19 11:26:45;;;;;;;0.05;0.05;;;;;;;20.84;47.68;98852.77;1615915;87;21245;-89
2021/05/19 11:29:15;;;;;;;0.47;0.20;;;;;;;20.88;47.30;98842.95;1613293;87;21396;-89
2021/05/19 11:31:45;;;;;;;0.10;0.10;;;;;;;20.89;47.59;98848.61;1617432;87;21790;-90
2021/05/19 11:34:15;;;;;;;1.32;0.20;;;;;;;20.89;48.32;98851.31;1607912;88;21222;-89
2021/05/19 11:36:45;;;;;;;1.42;0.10;;;;;;;20.92;48.45;98852.09;1599206;89;21596;-89
2021/05/19 11:39:34;;;;;;;1.27;0.10;;;;;;;20.94;48.81;98851.25;1582644;89;21155;-91
2021/05/19 11:42:27;;;;;;;1.87;0.35;;;;;;;20.96;48.95;98853.11;1590614;89;21203;-89
2021/05/19 11:45:07;;;;;;;0.78;0.10;;;;;;;20.97;48.75;98856.09;1593518;87;21199;-91
2021/05/19 11:47:40;;;;;;;1.65;0.10;;;;;;;20.93;48.50;98861.84;1616341;87;21472;-90
2021/05/19 11:50:24;;;;;;;0.75;0.10;;;;;;;20.86;48.46;98855.98;1593817;87;21664;-90
2021/05/19 11:53:03;;;;;;;0.60;0.10;;;;;;;20.79;48.58;98857.69;1618952;87;21105;-90
2021/05/19 11:55:45;;;;;;;0.62;0.10;;;;;;;20.77;48.66;98856.61;1606939;87;21202;-90